sensor_id;sensor_type;location;lat;lon;timestamp;P1;durP1;ratioP1;P2;durP2;ratioP2
26036;SDS011;13810;48.376;10.944;2023-03-15T00:00:28;5.63;;;1.67;;
26036;SDS011;13810;48.376;10.944;2023-03-15T00:00:59;3.90;;;1.52;;
26036;SDS011;13810;48.376;10.944;2023-03-15T00:01:35;1.10;;;1.00;;
26036;SDS011;13810;48.376;10.944;2023-03-15T00:02:05;2.78;;;1.67;;
26036;SDS011;13810;48.376;10.944;2023-03-15T00:02:37;1.63;;;1.40;;
26036;SDS011;13810;48.376;10.944;2023-03-15T00:03:08;3.08;;;1.17;;
26036;SDS011;13810;48.376;10.944;2023-03-15T00:03:40;1.30;;;1.20;;
26036;SDS011;13810;48.376;10.944;2023-03-15T00:04:12;2.38;;;1.42;;
26036;SDS011;13810;48.376;10.944;2023-03-15T00:04:43;2.92;;;2.25;;
26036;SDS011;13810;48.376;10.944;2023-03-15T00:05:13;1.67;;;1.30;;
26036;SDS011;13810;48.376;10.944;2023-03-15T00:05:45;2.63;;;1.40;;
26036;SDS011;13810;48.376;10.944;2023-03-15T00:06:16;6.53;;;1.33;;
26036;SDS011;13810;48.376;10.944;2023-03-15T00:06:47;1.20;;;1.10;;
26036;SDS011;13810;48.376;10.944;2023-03-15T00:07:18;2.72;;;1.40;;
26036;SDS011;13810;48.376;10.944;2023-03-15T00:07:48;1.92;;;1.48;;
26036;SDS011;13810;48.376;10.944;2023-03-15T00:08:19;1.70;;;1.20;;
26036;SDS011;13810;48.376;10.944;2023-03-15T00:08:50;1.92;;;1.23;;
26036;SDS011;13810;48.376;10.944;2023-03-15T00:09:21;2.38;;;1.13;;
26036;SDS011;13810;48.376;10.944;2023-03-15T00:09:53;1.40;;;1.30;;
26036;SDS011;13810;48.376;10.944;2023-03-15T00:10:24;1.60;;;1.13;;
26036;SDS011;13810;48.376;10.944;2023-03-15T00:10:55;4.57;;;1.63;;
26036;SDS011;13810;48.376;10.944;2023-03-15T00:11:26;1.48;;;1.33;;
26036;SDS011;13810;48.376;10.944;2023-03-15T00:11:59;1.75;;;1.35;;
26036;SDS011;13810;48.376;10.944;2023-03-15T00:12:30;2.42;;;1.33;;
26036;SDS011;13810;48.376;10.944;2023-03-15T00:13:02;1.77;;;1.27;;
26036;SDS011;13810;48.376;10.944;2023-03-15T00:13:32;1.30;;;1.20;;
26036;SDS011;13810;48.376;10.944;2023-03-15T00:14:03;2.28;;;1.42;;
26036;SDS011;13810;48.376;10.944;2023-03-15T00:14:35;1.30;;;1.20;;
26036;SDS011;13810;48.376;10.944;2023-03-15T00:15:06;2.45;;;1.33;;
26036;SDS011;13810;48.376;10.944;2023-03-15T00:15:47;1.08;;;1.00;;
26036;SDS011;13810;48.376;10.944;2023-03-15T00:16:23;1.27;;;0.93;;
26036;SDS011;13810;48.376;10.944;2023-03-15T00:16:56;1.30;;;1.08;;
26036;SDS011;13810;48.376;10.944;2023-03-15T00:17:26;2.42;;;1.00;;
26036;SDS011;13810;48.376;10.944;2023-03-15T00:17:57;3.53;;;1.45;;
26036;SDS011;13810;48.376;10.944;2023-03-15T00:18:28;1.40;;;1.15;;
26036;SDS011;13810;48.376;10.944;2023-03-15T00:18:59;1.52;;;1.10;;
26036;SDS011;13810;48.376;10.944;2023-03-15T00:19:29;2.60;;;1.05;;
26036;SDS011;13810;48.376;10.944;2023-03-15T00:20:00;2.13;;;1.20;;
26036;SDS011;13810;48.376;10.944;2023-03-15T00:20:31;1.40;;;1.23;;
26036;SDS011;13810;48.376;10.944;2023-03-15T00:21:02;2.65;;;1.23;;
26036;SDS011;13810;48.376;10.944;2023-03-15T00:21:32;1.65;;;0.90;;
26036;SDS011;13810;48.376;10.944;2023-03-15T00:22:04;1.50;;;1.00;;
26036;SDS011;13810;48.376;10.944;2023-03-15T00:22:35;1.10;;;0.93;;
26036;SDS011;13810;48.376;10.944;2023-03-15T00:23:05;1.73;;;1.00;;
26036;SDS011;13810;48.376;10.944;2023-03-15T00:23:36;0.82;;;0.82;;
26036;SDS011;13810;48.376;10.944;2023-03-15T00:24:07;1.20;;;1.10;;
26036;SDS011;13810;48.376;10.944;2023-03-15T00:24:42;3.05;;;1.30;;
26036;SDS011;13810;48.376;10.944;2023-03-15T00:25:14;2.47;;;1.05;;
26036;SDS011;13810;48.376;10.944;2023-03-15T00:25:45;1.20;;;1.10;;
26036;SDS011;13810;48.376;10.944;2023-03-15T00:26:17;2.17;;;1.17;;
26036;SDS011;13810;48.376;10.944;2023-03-15T00:26:48;1.55;;;1.00;;
26036;SDS011;13810;48.376;10.944;2023-03-15T00:27:18;2.67;;;1.42;;
26036;SDS011;13810;48.376;10.944;2023-03-15T00:27:49;1.30;;;1.20;;
26036;SDS011;13810;48.376;10.944;2023-03-15T00:28:20;4.25;;;1.10;;
26036;SDS011;13810;48.376;10.944;2023-03-15T00:28:51;1.10;;;1.00;;
26036;SDS011;13810;48.376;10.944;2023-03-15T00:29:21;2.10;;;1.52;;
26036;SDS011;13810;48.376;10.944;2023-03-15T00:29:52;1.33;;;1.10;;
26036;SDS011;13810;48.376;10.944;2023-03-15T00:30:23;1.67;;;1.00;;
26036;SDS011;13810;48.376;10.944;2023-03-15T00:31:04;1.10;;;1.10;;
26036;SDS011;13810;48.376;10.944;2023-03-15T00:31:44;1.50;;;1.00;;
26036;SDS011;13810;48.376;10.944;2023-03-15T00:32:15;2.50;;;1.00;;
26036;SDS011;13810;48.376;10.944;2023-03-15T00:32:45;1.73;;;1.23;;
26036;SDS011;13810;48.376;10.944;2023-03-15T00:33:17;0.80;;;0.80;;
26036;SDS011;13810;48.376;10.944;2023-03-15T00:33:47;1.13;;;1.02;;
26036;SDS011;13810;48.376;10.944;2023-03-15T00:34:18;3.08;;;1.10;;
26036;SDS011;13810;48.376;10.944;2023-03-15T00:34:55;2.45;;;1.08;;
26036;SDS011;13810;48.376;10.944;2023-03-15T00:35:26;1.08;;;0.98;;
26036;SDS011;13810;48.376;10.944;2023-03-15T00:35:57;2.28;;;1.63;;
26036;SDS011;13810;48.376;10.944;2023-03-15T00:36:27;1.75;;;1.40;;
26036;SDS011;13810;48.376;10.944;2023-03-15T00:36:58;1.23;;;1.08;;
26036;SDS011;13810;48.376;10.944;2023-03-15T00:37:30;1.42;;;1.25;;
26036;SDS011;13810;48.376;10.944;2023-03-15T00:38:00;2.05;;;1.33;;
26036;SDS011;13810;48.376;10.944;2023-03-15T00:38:34;1.52;;;1.42;;
26036;SDS011;13810;48.376;10.944;2023-03-15T00:39:05;1.58;;;1.38;;
26036;SDS011;13810;48.376;10.944;2023-03-15T00:39:36;1.17;;;1.08;;
26036;SDS011;13810;48.376;10.944;2023-03-15T00:40:08;1.55;;;1.25;;
26036;SDS011;13810;48.376;10.944;2023-03-15T00:40:41;2.97;;;1.10;;
26036;SDS011;13810;48.376;10.944;2023-03-15T00:41:12;1.80;;;1.40;;
26036;SDS011;13810;48.376;10.944;2023-03-15T00:41:45;2.53;;;1.70;;
26036;SDS011;13810;48.376;10.944;2023-03-15T00:42:16;3.03;;;1.45;;
26036;SDS011;13810;48.376;10.944;2023-03-15T00:42:47;1.73;;;1.48;;
26036;SDS011;13810;48.376;10.944;2023-03-15T00:43:20;2.42;;;1.50;;
26036;SDS011;13810;48.376;10.944;2023-03-15T00:43:51;1.85;;;1.27;;
26036;SDS011;13810;48.376;10.944;2023-03-15T00:44:22;2.30;;;1.42;;
26036;SDS011;13810;48.376;10.944;2023-03-15T00:44:53;2.03;;;1.48;;
26036;SDS011;13810;48.376;10.944;2023-03-15T00:45:26;1.63;;;1.40;;
26036;SDS011;13810;48.376;10.944;2023-03-15T00:45:57;2.25;;;1.63;;
26036;SDS011;13810;48.376;10.944;2023-03-15T00:46:28;1.77;;;1.52;;
26036;SDS011;13810;48.376;10.944;2023-03-15T00:46:59;1.45;;;1.35;;
26036;SDS011;13810;48.376;10.944;2023-03-15T00:47:30;1.50;;;1.40;;
26036;SDS011;13810;48.376;10.944;2023-03-15T00:48:00;2.60;;;1.58;;
26036;SDS011;13810;48.376;10.944;2023-03-15T00:48:31;1.50;;;1.40;;
26036;SDS011;13810;48.376;10.944;2023-03-15T00:49:04;1.42;;;1.33;;
26036;SDS011;13810;48.376;10.944;2023-03-15T00:49:35;2.05;;;1.50;;
26036;SDS011;13810;48.376;10.944;2023-03-15T00:50:06;1.42;;;1.33;;
26036;SDS011;13810;48.376;10.944;2023-03-15T00:50:37;2.85;;;1.67;;
26036;SDS011;13810;48.376;10.944;2023-03-15T00:51:09;2.63;;;1.40;;
26036;SDS011;13810;48.376;10.944;2023-03-15T00:51:41;2.35;;;1.67;;
26036;SDS011;13810;48.376;10.944;2023-03-15T00:52:12;3.53;;;1.40;;
26036;SDS011;13810;48.376;10.944;2023-03-15T00:52:43;1.33;;;1.17;;
26036;SDS011;13810;48.376;10.944;2023-03-15T00:53:14;3.15;;;1.70;;
26036;SDS011;13810;48.376;10.944;2023-03-15T00:53:45;2.50;;;1.55;;
26036;SDS011;13810;48.376;10.944;2023-03-15T00:54:16;1.70;;;1.60;;
26036;SDS011;13810;48.376;10.944;2023-03-15T00:54:53;3.92;;;1.65;;
26036;SDS011;13810;48.376;10.944;2023-03-15T00:55:24;1.50;;;1.40;;
26036;SDS011;13810;48.376;10.944;2023-03-15T00:55:56;2.92;;;1.67;;
26036;SDS011;13810;48.376;10.944;2023-03-15T00:56:27;2.78;;;1.83;;
26036;SDS011;13810;48.376;10.944;2023-03-15T00:57:00;1.45;;;1.30;;
26036;SDS011;13810;48.376;10.944;2023-03-15T00:57:31;2.00;;;1.50;;
26036;SDS011;13810;48.376;10.944;2023-03-15T00:58:03;1.98;;;1.60;;
26036;SDS011;13810;48.376;10.944;2023-03-15T00:58:34;1.70;;;1.40;;
26036;SDS011;13810;48.376;10.944;2023-03-15T00:59:05;1.48;;;1.20;;
26036;SDS011;13810;48.376;10.944;2023-03-15T00:59:36;1.60;;;1.50;;
26036;SDS011;13810;48.376;10.944;2023-03-15T01:00:07;3.40;;;1.90;;
26036;SDS011;13810;48.376;10.944;2023-03-15T01:00:40;1.70;;;1.38;;
26036;SDS011;13810;48.376;10.944;2023-03-15T01:01:14;1.58;;;1.33;;
26036;SDS011;13810;48.376;10.944;2023-03-15T01:01:46;4.55;;;1.70;;
26036;SDS011;13810;48.376;10.944;2023-03-15T01:02:17;3.10;;;1.80;;
26036;SDS011;13810;48.376;10.944;2023-03-15T01:02:51;3.13;;;1.60;;
26036;SDS011;13810;48.376;10.944;2023-03-15T01:03:22;1.90;;;1.50;;
26036;SDS011;13810;48.376;10.944;2023-03-15T01:03:53;1.90;;;1.70;;
26036;SDS011;13810;48.376;10.944;2023-03-15T01:04:24;1.67;;;1.48;;
26036;SDS011;13810;48.376;10.944;2023-03-15T01:04:55;3.42;;;2.17;;
26036;SDS011;13810;48.376;10.944;2023-03-15T01:05:26;3.38;;;1.70;;
26036;SDS011;13810;48.376;10.944;2023-03-15T01:05:56;2.83;;;1.50;;
26036;SDS011;13810;48.376;10.944;2023-03-15T01:06:27;2.17;;;1.73;;
26036;SDS011;13810;48.376;10.944;2023-03-15T01:06:58;2.97;;;1.67;;
26036;SDS011;13810;48.376;10.944;2023-03-15T01:07:29;2.08;;;1.85;;
26036;SDS011;13810;48.376;10.944;2023-03-15T01:08:02;1.85;;;1.42;;
26036;SDS011;13810;48.376;10.944;2023-03-15T01:08:33;1.98;;;1.65;;
26036;SDS011;13810;48.376;10.944;2023-03-15T01:09:04;4.40;;;1.73;;
26036;SDS011;13810;48.376;10.944;2023-03-15T01:09:34;2.10;;;1.85;;
26036;SDS011;13810;48.376;10.944;2023-03-15T01:10:05;2.67;;;1.70;;
26036;SDS011;13810;48.376;10.944;2023-03-15T01:10:37;1.95;;;1.75;;
26036;SDS011;13810;48.376;10.944;2023-03-15T01:11:09;1.58;;;1.48;;
26036;SDS011;13810;48.376;10.944;2023-03-15T01:11:42;1.70;;;1.60;;
26036;SDS011;13810;48.376;10.944;2023-03-15T01:12:12;2.35;;;1.77;;
26036;SDS011;13810;48.376;10.944;2023-03-15T01:12:43;3.35;;;2.00;;
26036;SDS011;13810;48.376;10.944;2023-03-15T01:13:14;4.63;;;2.10;;
26036;SDS011;13810;48.376;10.944;2023-03-15T01:13:45;3.30;;;2.30;;
26036;SDS011;13810;48.376;10.944;2023-03-15T01:14:16;2.28;;;1.90;;
26036;SDS011;13810;48.376;10.944;2023-03-15T01:14:47;2.35;;;1.95;;
26036;SDS011;13810;48.376;10.944;2023-03-15T01:15:18;1.92;;;1.63;;
26036;SDS011;13810;48.376;10.944;2023-03-15T01:15:49;1.80;;;1.67;;
26036;SDS011;13810;48.376;10.944;2023-03-15T01:16:20;2.25;;;1.73;;
26036;SDS011;13810;48.376;10.944;2023-03-15T01:16:51;2.50;;;1.55;;
26036;SDS011;13810;48.376;10.944;2023-03-15T01:17:21;2.03;;;1.60;;
26036;SDS011;13810;48.376;10.944;2023-03-15T01:17:52;2.15;;;1.77;;
26036;SDS011;13810;48.376;10.944;2023-03-15T01:18:22;1.83;;;1.50;;
26036;SDS011;13810;48.376;10.944;2023-03-15T01:18:54;2.08;;;1.70;;
26036;SDS011;13810;48.376;10.944;2023-03-15T01:19:25;2.65;;;1.70;;
26036;SDS011;13810;48.376;10.944;2023-03-15T01:19:56;3.33;;;1.83;;
26036;SDS011;13810;48.376;10.944;2023-03-15T01:20:27;2.25;;;1.88;;
26036;SDS011;13810;48.376;10.944;2023-03-15T01:20:58;2.25;;;1.50;;
26036;SDS011;13810;48.376;10.944;2023-03-15T01:21:30;2.25;;;1.70;;
26036;SDS011;13810;48.376;10.944;2023-03-15T01:22:00;2.78;;;1.80;;
26036;SDS011;13810;48.376;10.944;2023-03-15T01:22:31;1.40;;;1.30;;
26036;SDS011;13810;48.376;10.944;2023-03-15T01:23:02;2.88;;;1.77;;
26036;SDS011;13810;48.376;10.944;2023-03-15T01:23:33;2.78;;;2.00;;
26036;SDS011;13810;48.376;10.944;2023-03-15T01:24:04;2.45;;;1.70;;
26036;SDS011;13810;48.376;10.944;2023-03-15T01:24:35;2.03;;;1.80;;
26036;SDS011;13810;48.376;10.944;2023-03-15T01:25:06;2.05;;;1.60;;
26036;SDS011;13810;48.376;10.944;2023-03-15T01:25:38;1.73;;;1.63;;
26036;SDS011;13810;48.376;10.944;2023-03-15T01:26:10;2.30;;;2.10;;
26036;SDS011;13810;48.376;10.944;2023-03-15T01:26:42;2.13;;;1.85;;
26036;SDS011;13810;48.376;10.944;2023-03-15T01:27:12;2.10;;;1.90;;
26036;SDS011;13810;48.376;10.944;2023-03-15T01:27:43;2.47;;;1.90;;
26036;SDS011;13810;48.376;10.944;2023-03-15T01:28:14;2.47;;;2.03;;
26036;SDS011;13810;48.376;10.944;2023-03-15T01:28:45;2.08;;;1.70;;
26036;SDS011;13810;48.376;10.944;2023-03-15T01:29:16;1.60;;;1.50;;
26036;SDS011;13810;48.376;10.944;2023-03-15T01:29:47;2.47;;;1.70;;
26036;SDS011;13810;48.376;10.944;2023-03-15T01:30:17;4.30;;;2.42;;
26036;SDS011;13810;48.376;10.944;2023-03-15T01:30:49;2.17;;;1.80;;
26036;SDS011;13810;48.376;10.944;2023-03-15T01:31:22;2.63;;;1.83;;
26036;SDS011;13810;48.376;10.944;2023-03-15T01:31:57;2.80;;;1.80;;
26036;SDS011;13810;48.376;10.944;2023-03-15T01:32:27;2.75;;;1.83;;
26036;SDS011;13810;48.376;10.944;2023-03-15T01:32:58;1.88;;;1.58;;
26036;SDS011;13810;48.376;10.944;2023-03-15T01:33:29;2.53;;;1.88;;
26036;SDS011;13810;48.376;10.944;2023-03-15T01:34:00;2.50;;;1.63;;
26036;SDS011;13810;48.376;10.944;2023-03-15T01:34:30;3.67;;;1.98;;
26036;SDS011;13810;48.376;10.944;2023-03-15T01:35:01;3.22;;;1.70;;
26036;SDS011;13810;48.376;10.944;2023-03-15T01:35:32;2.65;;;1.95;;
26036;SDS011;13810;48.376;10.944;2023-03-15T01:36:03;3.50;;;2.13;;
26036;SDS011;13810;48.376;10.944;2023-03-15T01:36:35;3.28;;;1.73;;
26036;SDS011;13810;48.376;10.944;2023-03-15T01:37:06;2.28;;;1.65;;
26036;SDS011;13810;48.376;10.944;2023-03-15T01:37:38;2.40;;;2.05;;
26036;SDS011;13810;48.376;10.944;2023-03-15T01:38:09;3.20;;;2.10;;
26036;SDS011;13810;48.376;10.944;2023-03-15T01:38:40;1.80;;;1.55;;
26036;SDS011;13810;48.376;10.944;2023-03-15T01:39:10;3.78;;;1.90;;
26036;SDS011;13810;48.376;10.944;2023-03-15T01:39:41;3.03;;;1.70;;
26036;SDS011;13810;48.376;10.944;2023-03-15T01:40:12;4.32;;;1.88;;
26036;SDS011;13810;48.376;10.944;2023-03-15T01:40:44;3.78;;;2.28;;
26036;SDS011;13810;48.376;10.944;2023-03-15T01:41:16;2.17;;;1.67;;
26036;SDS011;13810;48.376;10.944;2023-03-15T01:41:47;2.72;;;1.90;;
26036;SDS011;13810;48.376;10.944;2023-03-15T01:42:18;2.90;;;2.25;;
26036;SDS011;13810;48.376;10.944;2023-03-15T01:42:50;3.67;;;2.20;;
26036;SDS011;13810;48.376;10.944;2023-03-15T01:43:32;5.10;;;2.20;;
26036;SDS011;13810;48.376;10.944;2023-03-15T01:44:03;2.42;;;2.22;;
26036;SDS011;13810;48.376;10.944;2023-03-15T01:44:54;3.10;;;2.17;;
26036;SDS011;13810;48.376;10.944;2023-03-15T01:46:52;5.57;;;2.38;;
26036;SDS011;13810;48.376;10.944;2023-03-15T01:47:23;2.03;;;1.75;;
26036;SDS011;13810;48.376;10.944;2023-03-15T01:47:56;2.40;;;1.90;;
26036;SDS011;13810;48.376;10.944;2023-03-15T01:49:53;1.60;;;1.13;;
26036;SDS011;13810;48.376;10.944;2023-03-15T01:50:35;1.52;;;1.23;;
26036;SDS011;13810;48.376;10.944;2023-03-15T01:51:08;1.70;;;1.38;;
26036;SDS011;13810;48.376;10.944;2023-03-15T01:51:56;1.55;;;1.20;;
26036;SDS011;13810;48.376;10.944;2023-03-15T01:52:32;1.55;;;1.35;;
26036;SDS011;13810;48.376;10.944;2023-03-15T01:53:06;1.17;;;1.02;;
26036;SDS011;13810;48.376;10.944;2023-03-15T01:53:37;1.70;;;1.30;;
26036;SDS011;13810;48.376;10.944;2023-03-15T01:55:10;1.38;;;1.23;;
26036;SDS011;13810;48.376;10.944;2023-03-15T01:55:44;1.83;;;1.40;;
26036;SDS011;13810;48.376;10.944;2023-03-15T01:56:14;1.27;;;1.10;;
26036;SDS011;13810;48.376;10.944;2023-03-15T01:56:47;2.47;;;1.98;;
26036;SDS011;13810;48.376;10.944;2023-03-15T01:57:40;3.10;;;1.98;;
26036;SDS011;13810;48.376;10.944;2023-03-15T01:58:15;3.10;;;1.92;;
26036;SDS011;13810;48.376;10.944;2023-03-15T01:58:46;2.72;;;1.95;;
26036;SDS011;13810;48.376;10.944;2023-03-15T01:59:21;5.60;;;2.03;;
26036;SDS011;13810;48.376;10.944;2023-03-15T01:59:58;4.88;;;2.25;;
26036;SDS011;13810;48.376;10.944;2023-03-15T02:00:39;5.28;;;2.40;;
26036;SDS011;13810;48.376;10.944;2023-03-15T02:01:10;3.08;;;2.25;;
26036;SDS011;13810;48.376;10.944;2023-03-15T02:01:41;4.82;;;2.45;;
26036;SDS011;13810;48.376;10.944;2023-03-15T02:02:14;3.08;;;2.13;;
26036;SDS011;13810;48.376;10.944;2023-03-15T02:02:46;3.95;;;2.40;;
26036;SDS011;13810;48.376;10.944;2023-03-15T02:03:22;3.22;;;2.20;;
26036;SDS011;13810;48.376;10.944;2023-03-15T02:03:59;2.58;;;1.77;;
26036;SDS011;13810;48.376;10.944;2023-03-15T02:04:37;2.95;;;1.40;;
26036;SDS011;13810;48.376;10.944;2023-03-15T02:05:19;2.33;;;1.70;;
26036;SDS011;13810;48.376;10.944;2023-03-15T02:05:56;2.60;;;1.60;;
26036;SDS011;13810;48.376;10.944;2023-03-15T02:06:32;2.13;;;1.60;;
26036;SDS011;13810;48.376;10.944;2023-03-15T02:07:04;2.05;;;1.60;;
26036;SDS011;13810;48.376;10.944;2023-03-15T02:07:36;1.50;;;1.40;;
26036;SDS011;13810;48.376;10.944;2023-03-15T02:08:09;5.00;;;1.38;;
26036;SDS011;13810;48.376;10.944;2023-03-15T02:08:41;1.40;;;1.30;;
26036;SDS011;13810;48.376;10.944;2023-03-15T02:09:16;1.60;;;1.40;;
26036;SDS011;13810;48.376;10.944;2023-03-15T02:10:01;3.80;;;1.52;;
26036;SDS011;13810;48.376;10.944;2023-03-15T02:11:11;3.72;;;1.48;;
26036;SDS011;13810;48.376;10.944;2023-03-15T02:11:43;1.40;;;1.23;;
26036;SDS011;13810;48.376;10.944;2023-03-15T02:12:13;1.38;;;1.27;;
26036;SDS011;13810;48.376;10.944;2023-03-15T02:12:45;4.53;;;1.20;;
26036;SDS011;13810;48.376;10.944;2023-03-15T02:13:21;4.05;;;1.65;;
26036;SDS011;13810;48.376;10.944;2023-03-15T02:13:54;2.35;;;1.63;;
26036;SDS011;13810;48.376;10.944;2023-03-15T02:14:26;1.50;;;1.40;;
26036;SDS011;13810;48.376;10.944;2023-03-15T02:14:58;1.50;;;1.15;;
26036;SDS011;13810;48.376;10.944;2023-03-15T02:15:32;1.25;;;1.13;;
26036;SDS011;13810;48.376;10.944;2023-03-15T02:16:02;2.88;;;1.25;;
26036;SDS011;13810;48.376;10.944;2023-03-15T02:16:35;1.23;;;1.10;;
26036;SDS011;13810;48.376;10.944;2023-03-15T02:17:07;1.30;;;1.08;;
26036;SDS011;13810;48.376;10.944;2023-03-15T02:17:41;1.83;;;1.23;;
26036;SDS011;13810;48.376;10.944;2023-03-15T02:18:14;2.22;;;1.30;;
26036;SDS011;13810;48.376;10.944;2023-03-15T02:18:45;5.20;;;1.55;;
26036;SDS011;13810;48.376;10.944;2023-03-15T02:19:25;1.67;;;1.27;;
26036;SDS011;13810;48.376;10.944;2023-03-15T02:20:08;2.83;;;1.55;;
26036;SDS011;13810;48.376;10.944;2023-03-15T02:21:51;1.15;;;1.05;;
26036;SDS011;13810;48.376;10.944;2023-03-15T02:22:29;1.33;;;1.23;;
26036;SDS011;13810;48.376;10.944;2023-03-15T02:23:10;4.05;;;1.77;;
26036;SDS011;13810;48.376;10.944;2023-03-15T02:23:43;1.50;;;1.40;;
26036;SDS011;13810;48.376;10.944;2023-03-15T02:25:32;6.13;;;1.75;;
26036;SDS011;13810;48.376;10.944;2023-03-15T02:26:53;3.50;;;1.52;;
26036;SDS011;13810;48.376;10.944;2023-03-15T02:27:27;1.98;;;1.30;;
26036;SDS011;13810;48.376;10.944;2023-03-15T02:28:01;4.13;;;1.55;;
26036;SDS011;13810;48.376;10.944;2023-03-15T02:28:34;3.47;;;1.52;;
26036;SDS011;13810;48.376;10.944;2023-03-15T02:29:05;1.58;;;1.30;;
26036;SDS011;13810;48.376;10.944;2023-03-15T02:29:36;4.35;;;1.60;;
26036;SDS011;13810;48.376;10.944;2023-03-15T02:30:07;1.98;;;1.45;;
26036;SDS011;13810;48.376;10.944;2023-03-15T02:30:40;3.35;;;1.45;;
26036;SDS011;13810;48.376;10.944;2023-03-15T02:31:12;1.50;;;1.15;;
26036;SDS011;13810;48.376;10.944;2023-03-15T02:31:43;3.75;;;1.55;;
26036;SDS011;13810;48.376;10.944;2023-03-15T02:32:14;4.10;;;1.65;;
26036;SDS011;13810;48.376;10.944;2023-03-15T02:32:44;3.17;;;1.75;;
26036;SDS011;13810;48.376;10.944;2023-03-15T02:33:24;2.05;;;1.52;;
26036;SDS011;13810;48.376;10.944;2023-03-15T02:33:57;2.08;;;1.30;;
26036;SDS011;13810;48.376;10.944;2023-03-15T02:34:28;3.17;;;1.88;;
26036;SDS011;13810;48.376;10.944;2023-03-15T02:34:58;2.30;;;1.70;;
26036;SDS011;13810;48.376;10.944;2023-03-15T02:35:30;2.58;;;1.73;;
26036;SDS011;13810;48.376;10.944;2023-03-15T02:36:08;2.33;;;1.70;;
26036;SDS011;13810;48.376;10.944;2023-03-15T02:36:44;2.42;;;1.58;;
26036;SDS011;13810;48.376;10.944;2023-03-15T02:37:15;4.30;;;1.80;;
26036;SDS011;13810;48.376;10.944;2023-03-15T02:37:45;3.75;;;1.83;;
26036;SDS011;13810;48.376;10.944;2023-03-15T02:38:16;4.20;;;1.75;;
26036;SDS011;13810;48.376;10.944;2023-03-15T02:38:48;1.58;;;1.45;;
26036;SDS011;13810;48.376;10.944;2023-03-15T02:39:20;3.63;;;1.40;;
26036;SDS011;13810;48.376;10.944;2023-03-15T02:39:51;3.67;;;1.65;;
26036;SDS011;13810;48.376;10.944;2023-03-15T02:40:22;6.40;;;1.77;;
26036;SDS011;13810;48.376;10.944;2023-03-15T02:40:56;2.30;;;1.50;;
26036;SDS011;13810;48.376;10.944;2023-03-15T02:41:32;3.42;;;2.05;;
26036;SDS011;13810;48.376;10.944;2023-03-15T02:42:08;1.83;;;1.55;;
26036;SDS011;13810;48.376;10.944;2023-03-15T02:42:38;6.90;;;1.80;;
26036;SDS011;13810;48.376;10.944;2023-03-15T02:43:19;6.57;;;1.85;;
26036;SDS011;13810;48.376;10.944;2023-03-15T02:43:55;3.13;;;1.83;;
26036;SDS011;13810;48.376;10.944;2023-03-15T02:44:31;2.05;;;1.38;;
26036;SDS011;13810;48.376;10.944;2023-03-15T02:45:04;3.80;;;1.60;;
26036;SDS011;13810;48.376;10.944;2023-03-15T02:45:35;2.45;;;1.67;;
26036;SDS011;13810;48.376;10.944;2023-03-15T02:46:08;3.83;;;1.60;;
26036;SDS011;13810;48.376;10.944;2023-03-15T02:46:39;3.35;;;1.85;;
26036;SDS011;13810;48.376;10.944;2023-03-15T02:47:28;4.60;;;2.10;;
26036;SDS011;13810;48.376;10.944;2023-03-15T02:48:01;3.15;;;1.70;;
26036;SDS011;13810;48.376;10.944;2023-03-15T02:48:34;3.15;;;1.40;;
26036;SDS011;13810;48.376;10.944;2023-03-15T02:49:06;5.13;;;1.75;;
26036;SDS011;13810;48.376;10.944;2023-03-15T02:49:41;3.10;;;1.52;;
26036;SDS011;13810;48.376;10.944;2023-03-15T02:50:13;3.63;;;1.40;;
26036;SDS011;13810;48.376;10.944;2023-03-15T02:50:44;3.28;;;1.70;;
26036;SDS011;13810;48.376;10.944;2023-03-15T02:51:19;2.90;;;1.70;;
26036;SDS011;13810;48.376;10.944;2023-03-15T02:51:52;4.75;;;1.58;;
26036;SDS011;13810;48.376;10.944;2023-03-15T02:52:22;4.88;;;1.77;;
26036;SDS011;13810;48.376;10.944;2023-03-15T02:52:53;5.30;;;1.70;;
26036;SDS011;13810;48.376;10.944;2023-03-15T02:53:24;2.80;;;1.55;;
26036;SDS011;13810;48.376;10.944;2023-03-15T02:53:55;1.55;;;1.45;;
26036;SDS011;13810;48.376;10.944;2023-03-15T02:54:26;4.32;;;1.95;;
26036;SDS011;13810;48.376;10.944;2023-03-15T02:54:56;2.25;;;1.67;;
26036;SDS011;13810;48.376;10.944;2023-03-15T02:55:27;3.33;;;1.67;;
26036;SDS011;13810;48.376;10.944;2023-03-15T02:56:01;2.20;;;1.40;;
26036;SDS011;13810;48.376;10.944;2023-03-15T02:56:32;2.15;;;1.50;;
26036;SDS011;13810;48.376;10.944;2023-03-15T02:57:03;3.15;;;1.65;;
26036;SDS011;13810;48.376;10.944;2023-03-15T02:57:34;4.15;;;1.90;;
26036;SDS011;13810;48.376;10.944;2023-03-15T02:58:04;3.55;;;1.80;;
26036;SDS011;13810;48.376;10.944;2023-03-15T02:58:35;2.05;;;1.52;;
26036;SDS011;13810;48.376;10.944;2023-03-15T02:59:06;4.32;;;1.63;;
26036;SDS011;13810;48.376;10.944;2023-03-15T02:59:36;3.60;;;1.83;;
26036;SDS011;13810;48.376;10.944;2023-03-15T03:00:07;2.67;;;2.13;;
26036;SDS011;13810;48.376;10.944;2023-03-15T03:00:44;5.57;;;1.65;;
26036;SDS011;13810;48.376;10.944;2023-03-15T03:01:16;2.13;;;1.65;;
26036;SDS011;13810;48.376;10.944;2023-03-15T03:01:47;4.53;;;1.35;;
26036;SDS011;13810;48.376;10.944;2023-03-15T03:02:18;1.80;;;1.40;;
26036;SDS011;13810;48.376;10.944;2023-03-15T03:02:49;2.38;;;1.30;;
26036;SDS011;13810;48.376;10.944;2023-03-15T03:03:19;8.02;;;2.00;;
26036;SDS011;13810;48.376;10.944;2023-03-15T03:03:50;2.10;;;1.45;;
26036;SDS011;13810;48.376;10.944;2023-03-15T03:04:21;2.03;;;1.15;;
26036;SDS011;13810;48.376;10.944;2023-03-15T03:04:51;3.10;;;1.45;;
26036;SDS011;13810;48.376;10.944;2023-03-15T03:05:22;3.83;;;2.13;;
26036;SDS011;13810;48.376;10.944;2023-03-15T03:05:53;3.53;;;1.60;;
26036;SDS011;13810;48.376;10.944;2023-03-15T03:06:23;2.30;;;1.63;;
26036;SDS011;13810;48.376;10.944;2023-03-15T03:06:54;2.03;;;1.50;;
26036;SDS011;13810;48.376;10.944;2023-03-15T03:07:24;1.40;;;1.30;;
26036;SDS011;13810;48.376;10.944;2023-03-15T03:07:55;3.85;;;1.45;;
26036;SDS011;13810;48.376;10.944;2023-03-15T03:08:26;2.15;;;1.48;;
26036;SDS011;13810;48.376;10.944;2023-03-15T03:08:56;4.65;;;1.60;;
26036;SDS011;13810;48.376;10.944;2023-03-15T03:09:27;2.85;;;1.60;;
26036;SDS011;13810;48.376;10.944;2023-03-15T03:09:58;5.28;;;1.27;;
26036;SDS011;13810;48.376;10.944;2023-03-15T03:10:28;1.60;;;0.98;;
26036;SDS011;13810;48.376;10.944;2023-03-15T03:10:59;3.28;;;1.45;;
26036;SDS011;13810;48.376;10.944;2023-03-15T03:11:30;1.55;;;1.30;;
26036;SDS011;13810;48.376;10.944;2023-03-15T03:12:00;2.60;;;1.80;;
26036;SDS011;13810;48.376;10.944;2023-03-15T03:12:31;1.95;;;1.42;;
26036;SDS011;13810;48.376;10.944;2023-03-15T03:13:02;1.30;;;1.20;;
26036;SDS011;13810;48.376;10.944;2023-03-15T03:13:33;1.88;;;1.33;;
26036;SDS011;13810;48.376;10.944;2023-03-15T03:14:03;2.58;;;1.30;;
26036;SDS011;13810;48.376;10.944;2023-03-15T03:14:34;2.97;;;1.58;;
26036;SDS011;13810;48.376;10.944;2023-03-15T03:15:05;2.25;;;1.27;;
26036;SDS011;13810;48.376;10.944;2023-03-15T03:15:37;2.35;;;1.73;;
26036;SDS011;13810;48.376;10.944;2023-03-15T03:16:08;1.42;;;1.08;;
26036;SDS011;13810;48.376;10.944;2023-03-15T03:16:39;4.03;;;1.40;;
26036;SDS011;13810;48.376;10.944;2023-03-15T03:17:11;1.48;;;1.20;;
26036;SDS011;13810;48.376;10.944;2023-03-15T03:17:42;3.00;;;1.38;;
26036;SDS011;13810;48.376;10.944;2023-03-15T03:18:13;3.80;;;1.30;;
26036;SDS011;13810;48.376;10.944;2023-03-15T03:18:43;4.60;;;1.10;;
26036;SDS011;13810;48.376;10.944;2023-03-15T03:19:14;1.30;;;1.20;;